Evening Shade, Missouri
Current Conditions -  °F | °C
As of 1:30 AM on Thursday 18 Dec 2014 (Local Time) from KTBN Reporting Station
Freezing Rain Freezing Rain  
Wind Chill: 27°   Ceiling: 300
Heat Index: 32°   Visibility: 5mi
Dew Point: 32°   Wind: 5mph
Humidity: 100%   Direction: 70°ENE
Pressure: 30.2"   Gusts: NA
Location:  37.492°N, 92.1844°W
Report Text: KTBN 180730Z AUTO 07004KT 5SM -FZRA BR BKN003 OVC014 00/00 A3020 RMK AO2 UPB0727
Loading
Personal Weather Stations






























Interactive Weather Map New forecast layout! Learn more

10-Day Weather Forecast

Advertisements
Track Severe Weather on mobile